Time,TemperatureF,DewpointF,PressureIn,WindDirection,WindDirectionDegrees,WindSpeedMPH,WindSpeedGustMPH,Humidity,HourlyPrecipIn,Conditions,Clouds,dailyrainin,SoftwareType,DateUTC
2016-07-30 00:01:00,49.1,40.5,30.12,NW,315,3.5,3.5,72,0.00,CLR,,0.00,WeatherDisplay:10.37,2016-07-29 14:01:00,
2016-07-30 00:06:00,49.1,40.5,30.12,NNW,338,3.5,3.5,72,0.00,CLR,,0.00,WeatherDisplay:10.37,2016-07-29 14:06:00,
2016-07-30 00:11:00,49.1,40.5,30.12,NNW,338,5.8,5.8,72,0.00,CLR,,0.00,WeatherDisplay:10.37,2016-07-29 14:11:00,
2016-07-30 00:16:00,49.1,40.5,30.11,NW,315,3.5,3.5,72,0.00,CLR,,0.00,WeatherDisplay:10.37,2016-07-29 14:16:00,
2016-07-30 00:21:00,49.1,40.5,30.12,WNW,292,3.5,3.5,72,0.00,CLR,,0.00,WeatherDisplay:10.37,2016-07-29 14:21:00,
2016-07-30 00:26:00,49.1,40.5,30.12,NNW,338,3.5,3.5,72,0.00,CLR,,0.00,WeatherDisplay:10.37,2016-07-29 14:26:00,
2016-07-30 00:31:00,48.9,40.3,30.12,North,0,2.3,2.3,72,0.00,CLR,,0.00,WeatherDisplay:10.37,2016-07-29 14:31:00,
2016-07-30 00:36:00,48.9,40.3,30.12,WNW,292,3.5,3.5,72,0.00,CLR,,0.00,WeatherDisplay:10.37,2016-07-29 14:36:00,
2016-07-30 00:41:00,48.9,40.3,30.12,NNW,338,4.6,4.6,72,0.00,CLR,,0.00,WeatherDisplay:10.37,2016-07-29 14:41:00,
2016-07-30 00:46:00,48.9,40.3,30.12,NNW,338,3.5,3.5,72,0.00,CLR,,0.00,WeatherDisplay:10.37,2016-07-29 14:46:00,
2016-07-30 00:51:00,48.7,40.1,30.12,NNW,338,3.5,3.5,72,0.00,CLR,,0.00,WeatherDisplay:10.37,2016-07-29 14:51:00,
2016-07-30 00:56:00,48.7,40.5,30.12,WSW,248,2.3,2.3,73,0.00,CLR,,0.00,WeatherDisplay:10.37,2016-07-29 14:56:00,
2016-07-30 01:01:00,48.9,40.6,30.12,NW,315,2.3,2.3,73,0.00,CLR,,0.00,WeatherDisplay:10.37,2016-07-29 15:01:00,
2016-07-30 01:06:00,48.7,40.5,30.12,NNW,338,2.9,2.9,73,0.00,CLR,,0.00,WeatherDisplay:10.37,2016-07-29 15:06:00,
2016-07-30 01:11:00,48.7,40.5,30.12,West,270,4.6,4.6,73,0.00,CLR,,0.00,WeatherDisplay:10.37,2016-07-29 15:11:00,
2016-07-30 01:16:00,48.6,40.3,30.12,West,270,2.3,2.3,73,0.00,CLR,,0.00,WeatherDisplay:10.37,2016-07-29 15:16:00,
2016-07-30 01:21:00,48.7,40.5,30.12,NNW,338,3.5,3.5,73,0.00,CLR,,0.00,WeatherDisplay:10.37,2016-07-29 15:21:00,
2016-07-30 01:26:00,48.6,40.3,30.12,NW,315,3.5,3.5,73,0.00,CLR,,0.00,WeatherDisplay:10.37,2016-07-29 15:26:00,
2016-07-30 01:31:00,48.2,39.9,30.12,NNW,338,3.5,3.5,73,0.00,CLR,,0.00,WeatherDisplay:10.37,2016-07-29 15:31:00,
2016-07-30 01:36:00,48.2,39.9,30.12,North,0,4.6,4.6,73,0.00,CLR,,0.00,WeatherDisplay:10.37,2016-07-29 15:36:00,
2016-07-30 01:41:00,48.0,39.8,30.12,WNW,292,6.9,6.9,73,0.00,CLR,,0.00,WeatherDisplay:10.37,2016-07-29 15:41:00,
2016-07-30 01:47:00,48.0,39.8,30.12,NW,315,3.5,3.5,73,0.00,CLR,,0.00,WeatherDisplay:10.37,2016-07-29 15:47:00,
2016-07-30 01:50:00,48.0,39.8,30.12,WNW,292,10.4,10.4,73,0.00,CLR,,0.00,WeatherDisplay:10.37,2016-07-29 15:50:00,
2016-07-30 01:55:00,48.0,39.8,30.12,NNW,338,4.6,4.6,73,0.00,CLR,,0.00,WeatherDisplay:10.37,2016-07-29 15:55:00,
2016-07-30 02:00:00,48.0,39.8,30.12,West,270,2.3,2.3,73,0.00,CLR,,0.00,WeatherDisplay:10.37,2016-07-29 16:00:00,
2016-07-30 02:05:00,48.0,39.8,30.12,NW,315,2.3,2.3,73,0.00,CLR,,0.00,WeatherDisplay:10.37,2016-07-29 16:05:00,
2016-07-30 02:10:00,48.0,39.8,30.12,NNW,338,1.8,1.8,73,0.00,CLR,,0.00,WeatherDisplay:10.37,2016-07-29 16:10:00,
2016-07-30 02:15:00,47.7,39.4,30.12,WNW,292,2.3,2.3,73,0.00,CLR,,0.00,WeatherDisplay:10.37,2016-07-29 16:15:00,
2016-07-30 02:20:00,47.5,39.3,30.12,NW,315,3.5,3.5,73,0.00,CLR,,0.00,WeatherDisplay:10.37,2016-07-29 16:20:00,
2016-07-30 02:25:00,47.5,39.6,30.12,WNW,292,1.1,1.4,74,0.00,CLR,,0.00,WeatherDisplay:10.37,2016-07-29 16:25:00,
2016-07-30 02:30:00,47.5,39.6,30.12,WNW,292,2.3,2.3,74,0.00,CLR,,0.00,WeatherDisplay:10.37,2016-07-29 16:30:00,
2016-07-30 02:35:00,47.5,39.6,30.12,West,270,3.5,3.5,74,0.00,CLR,,0.00,WeatherDisplay:10.37,2016-07-29 16:35:00,
2016-07-30 02:40:00,47.5,39.6,30.12,NW,315,3.5,3.5,74,0.00,CLR,,0.00,WeatherDisplay:10.37,2016-07-29 16:40:00,
2016-07-30 02:45:00,47.3,39.4,30.12,NW,315,1.1,0.0,74,0.00,CLR,,0.00,WeatherDisplay:10.37,2016-07-29 16:45:00,
2016-07-30 02:50:00,47.1,38.9,30.11,NNW,338,1.6,1.6,73,0.00,CLR,,0.00,WeatherDisplay:10.37,2016-07-29 16:50:00,
2016-07-30 02:55:00,46.9,38.7,30.11,NNW,338,2.5,2.5,73,0.00,CLR,,0.00,WeatherDisplay:10.37,2016-07-29 16:55:00,
2016-07-30 03:00:00,46.6,38.7,30.12,WNW,292,2.3,2.3,74,0.00,CLR,,0.00,WeatherDisplay:10.37,2016-07-29 17:00:00,
2016-07-30 03:05:00,46.6,38.7,30.12,WNW,292,3.5,3.5,74,0.00,CLR,,0.00,WeatherDisplay:10.37,2016-07-29 17:05:00,
2016-07-30 03:10:00,46.6,38.7,30.12,West,270,3.5,3.5,74,0.00,CLR,,0.00,WeatherDisplay:10.37,2016-07-29 17:10:00,
2016-07-30 03:15:00,46.6,39.1,30.12,NW,315,3.5,3.5,75,0.00,CLR,,0.00,WeatherDisplay:10.37,2016-07-29 17:15:00,
2016-07-30 03:20:00,46.6,39.1,30.11,West,270,3.5,3.5,75,0.00,CLR,,0.00,WeatherDisplay:10.37,2016-07-29 17:20:00,
2016-07-30 03:25:00,46.8,39.3,30.11,WNW,292,4.0,4.0,75,0.00,CLR,,0.00,WeatherDisplay:10.37,2016-07-29 17:25:00,